sensor_id;sensor_type;location;lat;lon;timestamp;P1;durP1;ratioP1;P2;durP2;ratioP2
66581;SDS011;53438;48.898;2.308;2023-07-20T03:02:25;6.63;;;2.10;;
66581;SDS011;53438;48.898;2.308;2023-07-20T03:04:51;7.68;;;3.33;;
66581;SDS011;53438;48.898;2.308;2023-07-20T03:07:16;6.03;;;2.50;;
66581;SDS011;53438;48.898;2.308;2023-07-20T03:09:41;9.30;;;2.70;;
66581;SDS011;53438;48.898;2.308;2023-07-20T03:12:08;11.40;;;2.75;;
66581;SDS011;53438;48.898;2.308;2023-07-20T03:14:34;6.67;;;2.57;;
66581;SDS011;53438;48.898;2.308;2023-07-20T03:16:59;8.73;;;2.92;;
66581;SDS011;53438;48.898;2.308;2023-07-20T03:19:24;7.33;;;2.80;;
66581;SDS011;53438;48.898;2.308;2023-07-20T03:21:50;6.63;;;2.73;;
66581;SDS011;53438;48.898;2.308;2023-07-20T03:24:16;4.50;;;1.90;;
66581;SDS011;53438;48.898;2.308;2023-07-20T03:26:41;7.30;;;2.33;;
66581;SDS011;53438;48.898;2.308;2023-07-20T03:29:06;5.10;;;2.28;;
66581;SDS011;53438;48.898;2.308;2023-07-20T03:31:32;9.60;;;2.30;;
66581;SDS011;53438;48.898;2.308;2023-07-20T03:33:58;8.50;;;2.60;;
66581;SDS011;53438;48.898;2.308;2023-07-20T03:36:23;5.03;;;2.15;;
66581;SDS011;53438;48.898;2.308;2023-07-20T03:38:48;8.47;;;2.77;;
66581;SDS011;53438;48.898;2.308;2023-07-20T03:41:15;9.27;;;3.15;;
66581;SDS011;53438;48.898;2.308;2023-07-20T03:43:41;7.67;;;2.47;;
66581;SDS011;53438;48.898;2.308;2023-07-20T03:46:06;6.18;;;2.67;;
66581;SDS011;53438;48.898;2.308;2023-07-20T03:48:32;9.60;;;2.27;;
66581;SDS011;53438;48.898;2.308;2023-07-20T03:50:58;7.35;;;2.80;;
66581;SDS011;53438;48.898;2.308;2023-07-20T03:53:23;5.93;;;2.25;;
66581;SDS011;53438;48.898;2.308;2023-07-20T03:55:49;8.90;;;2.60;;
66581;SDS011;53438;48.898;2.308;2023-07-20T03:58:16;9.52;;;2.42;;
66581;SDS011;53438;48.898;2.308;2023-07-20T04:00:46;8.98;;;3.20;;
66581;SDS011;53438;48.898;2.308;2023-07-20T04:03:12;10.40;;;2.90;;
66581;SDS011;53438;48.898;2.308;2023-07-20T04:05:38;8.93;;;2.30;;
66581;SDS011;53438;48.898;2.308;2023-07-20T04:08:04;7.18;;;2.97;;
66581;SDS011;53438;48.898;2.308;2023-07-20T04:10:29;6.50;;;2.40;;
66581;SDS011;53438;48.898;2.308;2023-07-20T04:12:54;5.40;;;2.30;;
66581;SDS011;53438;48.898;2.308;2023-07-20T04:15:20;6.10;;;2.50;;
66581;SDS011;53438;48.898;2.308;2023-07-20T04:17:45;8.10;;;2.70;;
66581;SDS011;53438;48.898;2.308;2023-07-20T04:20:11;8.90;;;2.35;;
66581;SDS011;53438;48.898;2.308;2023-07-20T04:22:36;7.77;;;3.30;;
66581;SDS011;53438;48.898;2.308;2023-07-20T04:25:02;6.73;;;2.57;;
66581;SDS011;53438;48.898;2.308;2023-07-20T04:27:28;7.65;;;2.65;;
66581;SDS011;53438;48.898;2.308;2023-07-20T04:29:54;8.37;;;2.67;;
66581;SDS011;53438;48.898;2.308;2023-07-20T04:32:19;9.53;;;2.57;;
66581;SDS011;53438;48.898;2.308;2023-07-20T04:34:44;10.23;;;2.40;;
66581;SDS011;53438;48.898;2.308;2023-07-20T04:37:10;7.90;;;2.90;;
66581;SDS011;53438;48.898;2.308;2023-07-20T04:39:35;6.33;;;3.00;;
66581;SDS011;53438;48.898;2.308;2023-07-20T04:42:00;10.23;;;2.70;;
66581;SDS011;53438;48.898;2.308;2023-07-20T04:44:26;9.43;;;2.83;;
66581;SDS011;53438;48.898;2.308;2023-07-20T04:46:51;10.67;;;2.73;;
66581;SDS011;53438;48.898;2.308;2023-07-20T04:49:16;10.87;;;2.57;;
66581;SDS011;53438;48.898;2.308;2023-07-20T04:51:42;6.53;;;2.30;;
66581;SDS011;53438;48.898;2.308;2023-07-20T04:54:07;9.27;;;2.50;;
66581;SDS011;53438;48.898;2.308;2023-07-20T04:56:32;6.60;;;3.00;;
66581;SDS011;53438;48.898;2.308;2023-07-20T04:58:58;8.15;;;2.53;;
66581;SDS011;53438;48.898;2.308;2023-07-20T05:01:23;8.37;;;2.53;;
66581;SDS011;53438;48.898;2.308;2023-07-20T05:03:49;7.13;;;2.60;;
66581;SDS011;53438;48.898;2.308;2023-07-20T05:06:14;6.90;;;2.53;;
66581;SDS011;53438;48.898;2.308;2023-07-20T05:08:40;6.80;;;2.47;;
66581;SDS011;53438;48.898;2.308;2023-07-20T05:11:06;6.73;;;3.07;;
66581;SDS011;53438;48.898;2.308;2023-07-20T05:13:32;5.00;;;2.10;;
66581;SDS011;53438;48.898;2.308;2023-07-20T05:15:57;9.38;;;2.75;;
66581;SDS011;53438;48.898;2.308;2023-07-20T05:18:23;10.23;;;2.50;;
66581;SDS011;53438;48.898;2.308;2023-07-20T05:20:48;8.50;;;2.70;;
66581;SDS011;53438;48.898;2.308;2023-07-20T05:23:14;7.25;;;2.92;;
66581;SDS011;53438;48.898;2.308;2023-07-20T05:25:41;7.80;;;2.58;;
66581;SDS011;53438;48.898;2.308;2023-07-20T05:28:07;6.57;;;3.00;;
66581;SDS011;53438;48.898;2.308;2023-07-20T05:30:33;9.27;;;2.58;;
66581;SDS011;53438;48.898;2.308;2023-07-20T05:32:58;6.47;;;2.67;;
66581;SDS011;53438;48.898;2.308;2023-07-20T05:35:25;5.97;;;2.50;;
66581;SDS011;53438;48.898;2.308;2023-07-20T05:37:51;7.85;;;2.38;;
66581;SDS011;53438;48.898;2.308;2023-07-20T05:40:16;6.83;;;2.87;;
66581;SDS011;53438;48.898;2.308;2023-07-20T05:42:46;6.80;;;2.28;;
66581;SDS011;53438;48.898;2.308;2023-07-20T05:45:13;6.20;;;2.70;;
66581;SDS011;53438;48.898;2.308;2023-07-20T05:47:40;8.85;;;2.45;;
66581;SDS011;53438;48.898;2.308;2023-07-20T05:50:06;6.28;;;2.60;;
66581;SDS011;53438;48.898;2.308;2023-07-20T05:52:32;8.40;;;2.80;;
66581;SDS011;53438;48.898;2.308;2023-07-20T05:54:57;7.10;;;3.28;;
66581;SDS011;53438;48.898;2.308;2023-07-20T05:57:23;8.50;;;2.42;;
66581;SDS011;53438;48.898;2.308;2023-07-20T05:59:48;9.80;;;2.70;;
66581;SDS011;53438;48.898;2.308;2023-07-20T06:02:14;4.37;;;2.33;;
66581;SDS011;53438;48.898;2.308;2023-07-20T06:04:39;8.73;;;2.70;;
66581;SDS011;53438;48.898;2.308;2023-07-20T06:07:04;10.68;;;2.97;;
66581;SDS011;53438;48.898;2.308;2023-07-20T06:09:30;7.47;;;2.33;;
66581;SDS011;53438;48.898;2.308;2023-07-20T06:11:56;7.47;;;2.97;;
66581;SDS011;53438;48.898;2.308;2023-07-20T06:14:21;9.90;;;3.17;;
66581;SDS011;53438;48.898;2.308;2023-07-20T06:16:47;7.87;;;2.50;;
66581;SDS011;53438;48.898;2.308;2023-07-20T06:19:12;7.57;;;2.47;;
66581;SDS011;53438;48.898;2.308;2023-07-20T06:21:38;8.60;;;3.13;;
66581;SDS011;53438;48.898;2.308;2023-07-20T06:24:04;9.37;;;3.73;;
66581;SDS011;53438;48.898;2.308;2023-07-20T06:26:29;11.68;;;4.15;;
66581;SDS011;53438;48.898;2.308;2023-07-20T06:28:55;11.03;;;3.50;;
66581;SDS011;53438;48.898;2.308;2023-07-20T06:31:21;19.35;;;3.78;;
66581;SDS011;53438;48.898;2.308;2023-07-20T06:33:47;15.30;;;3.33;;
66581;SDS011;53438;48.898;2.308;2023-07-20T06:36:12;8.63;;;2.90;;
66581;SDS011;53438;48.898;2.308;2023-07-20T06:38:37;9.57;;;3.13;;
66581;SDS011;53438;48.898;2.308;2023-07-20T06:41:03;9.20;;;2.60;;
66581;SDS011;53438;48.898;2.308;2023-07-20T06:43:28;11.03;;;3.10;;
66581;SDS011;53438;48.898;2.308;2023-07-20T06:45:54;9.63;;;3.08;;
66581;SDS011;53438;48.898;2.308;2023-07-20T06:48:20;6.73;;;3.43;;
66581;SDS011;53438;48.898;2.308;2023-07-20T06:50:46;6.68;;;3.03;;
66581;SDS011;53438;48.898;2.308;2023-07-20T06:53:11;8.93;;;3.50;;
66581;SDS011;53438;48.898;2.308;2023-07-20T06:55:36;8.53;;;3.80;;
66581;SDS011;53438;48.898;2.308;2023-07-20T06:58:02;8.20;;;3.57;;
66581;SDS011;53438;48.898;2.308;2023-07-20T07:00:28;10.48;;;3.80;;
66581;SDS011;53438;48.898;2.308;2023-07-20T07:02:53;7.57;;;3.53;;
66581;SDS011;53438;48.898;2.308;2023-07-20T07:05:18;10.37;;;3.60;;
66581;SDS011;53438;48.898;2.308;2023-07-20T07:07:44;10.13;;;3.17;;
66581;SDS011;53438;48.898;2.308;2023-07-20T07:10:09;10.05;;;3.20;;
66581;SDS011;53438;48.898;2.308;2023-07-20T07:12:34;7.30;;;3.10;;
66581;SDS011;53438;48.898;2.308;2023-07-20T07:15:00;6.53;;;3.40;;
66581;SDS011;53438;48.898;2.308;2023-07-20T07:17:26;8.35;;;3.70;;
66581;SDS011;53438;48.898;2.308;2023-07-20T07:19:52;7.07;;;3.57;;
66581;SDS011;53438;48.898;2.308;2023-07-20T07:22:21;8.02;;;3.90;;
66581;SDS011;53438;48.898;2.308;2023-07-20T07:24:47;11.70;;;4.43;;
66581;SDS011;53438;48.898;2.308;2023-07-20T07:27:13;11.35;;;4.10;;
66581;SDS011;53438;48.898;2.308;2023-07-20T07:29:41;11.23;;;4.20;;
66581;SDS011;53438;48.898;2.308;2023-07-20T07:32:09;10.55;;;4.22;;
66581;SDS011;53438;48.898;2.308;2023-07-20T07:34:35;10.30;;;3.88;;
66581;SDS011;53438;48.898;2.308;2023-07-20T07:37:00;8.30;;;4.07;;
66581;SDS011;53438;48.898;2.308;2023-07-20T07:39:27;9.45;;;3.70;;
66581;SDS011;53438;48.898;2.308;2023-07-20T07:41:55;12.93;;;4.07;;
66581;SDS011;53438;48.898;2.308;2023-07-20T07:44:20;9.67;;;3.73;;
66581;SDS011;53438;48.898;2.308;2023-07-20T07:46:46;10.98;;;3.63;;
66581;SDS011;53438;48.898;2.308;2023-07-20T07:49:11;12.87;;;3.30;;
66581;SDS011;53438;48.898;2.308;2023-07-20T07:51:37;5.97;;;3.53;;
66581;SDS011;53438;48.898;2.308;2023-07-20T07:54:02;9.67;;;3.27;;
66581;SDS011;53438;48.898;2.308;2023-07-20T07:56:28;9.73;;;3.03;;
66581;SDS011;53438;48.898;2.308;2023-07-20T07:58:53;8.33;;;3.47;;
66581;SDS011;53438;48.898;2.308;2023-07-20T08:01:18;8.23;;;3.63;;
66581;SDS011;53438;48.898;2.308;2023-07-20T08:03:44;8.37;;;3.50;;
66581;SDS011;53438;48.898;2.308;2023-07-20T08:06:12;11.55;;;3.42;;
66581;SDS011;53438;48.898;2.308;2023-07-20T08:08:38;6.60;;;3.17;;
66581;SDS011;53438;48.898;2.308;2023-07-20T08:11:03;8.40;;;3.00;;
66581;SDS011;53438;48.898;2.308;2023-07-20T08:13:29;9.00;;;2.90;;
66581;SDS011;53438;48.898;2.308;2023-07-20T08:15:54;10.55;;;3.55;;
66581;SDS011;53438;48.898;2.308;2023-07-20T08:18:20;9.85;;;3.92;;
66581;SDS011;53438;48.898;2.308;2023-07-20T08:20:46;10.82;;;3.70;;
66581;SDS011;53438;48.898;2.308;2023-07-20T08:23:12;8.15;;;3.33;;
66581;SDS011;53438;48.898;2.308;2023-07-20T08:25:39;11.27;;;2.78;;
66581;SDS011;53438;48.898;2.308;2023-07-20T08:28:08;11.43;;;3.55;;
66581;SDS011;53438;48.898;2.308;2023-07-20T08:30:41;8.10;;;3.07;;
66581;SDS011;53438;48.898;2.308;2023-07-20T08:33:07;9.65;;;3.45;;
66581;SDS011;53438;48.898;2.308;2023-07-20T08:35:33;16.23;;;3.28;;
66581;SDS011;53438;48.898;2.308;2023-07-20T08:37:58;5.43;;;3.03;;
66581;SDS011;53438;48.898;2.308;2023-07-20T08:40:24;4.83;;;2.63;;
66581;SDS011;53438;48.898;2.308;2023-07-20T08:42:49;8.40;;;3.30;;
66581;SDS011;53438;48.898;2.308;2023-07-20T08:45:15;10.23;;;3.50;;
66581;SDS011;53438;48.898;2.308;2023-07-20T08:47:42;7.55;;;2.90;;
66581;SDS011;53438;48.898;2.308;2023-07-20T08:50:09;11.83;;;3.23;;
66581;SDS011;53438;48.898;2.308;2023-07-20T08:52:36;8.32;;;2.65;;
66581;SDS011;53438;48.898;2.308;2023-07-20T08:55:01;5.80;;;3.13;;
66581;SDS011;53438;48.898;2.308;2023-07-20T08:57:31;8.68;;;3.15;;
66581;SDS011;53438;48.898;2.308;2023-07-20T08:59:58;8.02;;;2.78;;
66581;SDS011;53438;48.898;2.308;2023-07-20T09:02:29;9.88;;;2.60;;
66581;SDS011;53438;48.898;2.308;2023-07-20T09:04:58;8.05;;;2.95;;
66581;SDS011;53438;48.898;2.308;2023-07-20T09:07:23;9.93;;;2.90;;
66581;SDS011;53438;48.898;2.308;2023-07-20T09:09:49;6.90;;;2.22;;
66581;SDS011;53438;48.898;2.308;2023-07-20T09:12:15;7.47;;;2.97;;
66581;SDS011;53438;48.898;2.308;2023-07-20T09:14:42;17.40;;;6.83;;
66581;SDS011;53438;48.898;2.308;2023-07-20T09:17:14;3.75;;;1.90;;
66581;SDS011;53438;48.898;2.308;2023-07-20T09:19:46;6.25;;;2.70;;
66581;SDS011;53438;48.898;2.308;2023-07-20T09:22:13;12.05;;;2.67;;
66581;SDS011;53438;48.898;2.308;2023-07-20T09:24:38;15.33;;;2.57;;
66581;SDS011;53438;48.898;2.308;2023-07-20T09:27:04;6.68;;;2.45;;
66581;SDS011;53438;48.898;2.308;2023-07-20T09:29:30;9.60;;;3.20;;
66581;SDS011;53438;48.898;2.308;2023-07-20T09:32:02;9.52;;;2.80;;
66581;SDS011;53438;48.898;2.308;2023-07-20T09:34:29;6.63;;;1.80;;
66581;SDS011;53438;48.898;2.308;2023-07-20T09:36:58;18.63;;;11.05;;
66581;SDS011;53438;48.898;2.308;2023-07-20T09:39:24;4.65;;;2.10;;
66581;SDS011;53438;48.898;2.308;2023-07-20T09:41:49;4.67;;;1.90;;
66581;SDS011;53438;48.898;2.308;2023-07-20T09:44:16;7.30;;;1.90;;
66581;SDS011;53438;48.898;2.308;2023-07-20T09:46:45;4.77;;;1.70;;
66581;SDS011;53438;48.898;2.308;2023-07-20T09:49:12;3.88;;;1.60;;
66581;SDS011;53438;48.898;2.308;2023-07-20T09:51:37;4.28;;;1.95;;
66581;SDS011;53438;48.898;2.308;2023-07-20T09:54:04;3.80;;;1.48;;
66581;SDS011;53438;48.898;2.308;2023-07-20T09:56:30;5.83;;;1.87;;
66581;SDS011;53438;48.898;2.308;2023-07-20T09:58:57;5.80;;;1.75;;
66581;SDS011;53438;48.898;2.308;2023-07-20T10:01:23;5.00;;;2.53;;
66581;SDS011;53438;48.898;2.308;2023-07-20T10:03:48;4.03;;;1.65;;
66581;SDS011;53438;48.898;2.308;2023-07-20T10:06:19;4.47;;;1.77;;
66581;SDS011;53438;48.898;2.308;2023-07-20T10:08:49;4.95;;;1.00;;
66581;SDS011;53438;48.898;2.308;2023-07-20T10:11:17;4.30;;;1.27;;
66581;SDS011;53438;48.898;2.308;2023-07-20T10:13:45;8.07;;;2.53;;
66581;SDS011;53438;48.898;2.308;2023-07-20T10:16:15;5.22;;;1.55;;
66581;SDS011;53438;48.898;2.308;2023-07-20T10:21:56;15.60;;;3.20;;
66581;SDS011;53438;48.898;2.308;2023-07-20T10:24:25;4.80;;;2.03;;
66581;SDS011;53438;48.898;2.308;2023-07-20T10:26:51;5.20;;;2.10;;
66581;SDS011;53438;48.898;2.308;2023-07-20T10:29:16;5.40;;;2.43;;
66581;SDS011;53438;48.898;2.308;2023-07-20T10:31:42;5.20;;;1.88;;
66581;SDS011;53438;48.898;2.308;2023-07-20T10:34:09;8.25;;;2.10;;
66581;SDS011;53438;48.898;2.308;2023-07-20T10:36:35;3.33;;;1.20;;
66581;SDS011;53438;48.898;2.308;2023-07-20T10:39:21;4.75;;;2.20;;
66581;SDS011;53438;48.898;2.308;2023-07-20T10:41:48;3.97;;;1.70;;
66581;SDS011;53438;48.898;2.308;2023-07-20T10:44:14;4.70;;;2.33;;
66581;SDS011;53438;48.898;2.308;2023-07-20T10:46:45;4.43;;;1.80;;
66581;SDS011;53438;48.898;2.308;2023-07-20T10:49:11;4.70;;;1.88;;
66581;SDS011;53438;48.898;2.308;2023-07-20T10:51:40;4.15;;;1.75;;
66581;SDS011;53438;48.898;2.308;2023-07-20T10:56:43;4.63;;;1.60;;
66581;SDS011;53438;48.898;2.308;2023-07-20T10:59:19;5.38;;;1.10;;
66581;SDS011;53438;48.898;2.308;2023-07-20T11:01:50;3.80;;;2.00;;
66581;SDS011;53438;48.898;2.308;2023-07-20T11:04:21;3.25;;;1.50;;
66581;SDS011;53438;48.898;2.308;2023-07-20T11:07:05;3.30;;;1.30;;
66581;SDS011;53438;48.898;2.308;2023-07-20T11:09:37;3.95;;;1.35;;
66581;SDS011;53438;48.898;2.308;2023-07-20T11:14:36;3.63;;;1.80;;
66581;SDS011;53438;48.898;2.308;2023-07-20T11:17:12;8.60;;;4.18;;
66581;SDS011;53438;48.898;2.308;2023-07-20T11:19:39;5.65;;;1.70;;
66581;SDS011;53438;48.898;2.308;2023-07-20T11:22:08;3.58;;;1.50;;
66581;SDS011;53438;48.898;2.308;2023-07-20T11:24:37;2.75;;;1.40;;
66581;SDS011;53438;48.898;2.308;2023-07-20T11:27:04;4.22;;;1.27;;
66581;SDS011;53438;48.898;2.308;2023-07-20T11:29:29;6.25;;;1.80;;
66581;SDS011;53438;48.898;2.308;2023-07-20T11:31:55;4.20;;;1.10;;
66581;SDS011;53438;48.898;2.308;2023-07-20T11:34:21;4.00;;;1.30;;
66581;SDS011;53438;48.898;2.308;2023-07-20T11:36:47;1.90;;;1.00;;
66581;SDS011;53438;48.898;2.308;2023-07-20T11:39:14;3.88;;;1.75;;
66581;SDS011;53438;48.898;2.308;2023-07-20T11:41:44;2.03;;;1.30;;
66581;SDS011;53438;48.898;2.308;2023-07-20T11:44:15;12.05;;;1.95;;
66581;SDS011;53438;48.898;2.308;2023-07-20T11:46:41;1.73;;;0.83;;
66581;SDS011;53438;48.898;2.308;2023-07-20T11:49:08;8.23;;;1.63;;
66581;SDS011;53438;48.898;2.308;2023-07-20T11:51:34;4.15;;;1.10;;
66581;SDS011;53438;48.898;2.308;2023-07-20T11:54:00;3.78;;;1.00;;
66581;SDS011;53438;48.898;2.308;2023-07-20T11:56:27;2.42;;;1.00;;
66581;SDS011;53438;48.898;2.308;2023-07-20T11:58:59;3.83;;;1.23;;
66581;SDS011;53438;48.898;2.308;2023-07-20T12:01:26;1.23;;;0.70;;
66581;SDS011;53438;48.898;2.308;2023-07-20T12:03:57;2.78;;;0.88;;
66581;SDS011;53438;48.898;2.308;2023-07-20T12:06:24;2.53;;;1.00;;
66581;SDS011;53438;48.898;2.308;2023-07-20T12:08:50;2.92;;;1.00;;
66581;SDS011;53438;48.898;2.308;2023-07-20T12:11:34;3.10;;;1.13;;
66581;SDS011;53438;48.898;2.308;2023-07-20T12:14:00;8.70;;;1.20;;
66581;SDS011;53438;48.898;2.308;2023-07-20T12:16:27;1.92;;;0.90;;
66581;SDS011;53438;48.898;2.308;2023-07-20T12:19:00;1.95;;;0.80;;
66581;SDS011;53438;48.898;2.308;2023-07-20T12:21:30;4.23;;;1.57;;
66581;SDS011;53438;48.898;2.308;2023-07-20T12:23:56;1.98;;;0.77;;
66581;SDS011;53438;48.898;2.308;2023-07-20T12:26:23;2.72;;;1.10;;
66581;SDS011;53438;48.898;2.308;2023-07-20T12:28:50;2.33;;;0.98;;
66581;SDS011;53438;48.898;2.308;2023-07-20T12:31:16;2.17;;;1.03;;
66581;SDS011;53438;48.898;2.308;2023-07-20T12:33:41;2.47;;;1.08;;
66581;SDS011;53438;48.898;2.308;2023-07-20T12:36:08;1.87;;;0.90;;
66581;SDS011;53438;48.898;2.308;2023-07-20T12:38:36;3.28;;;1.20;;
66581;SDS011;53438;48.898;2.308;2023-07-20T12:41:01;3.38;;;1.65;;
66581;SDS011;53438;48.898;2.308;2023-07-20T12:43:27;2.53;;;1.40;;
66581;SDS011;53438;48.898;2.308;2023-07-20T12:45:54;2.25;;;0.90;;
66581;SDS011;53438;48.898;2.308;2023-07-20T12:48:19;3.67;;;0.95;;
66581;SDS011;53438;48.898;2.308;2023-07-20T12:50:45;1.40;;;0.80;;
66581;SDS011;53438;48.898;2.308;2023-07-20T12:53:10;3.23;;;1.30;;
66581;SDS011;53438;48.898;2.308;2023-07-20T12:55:36;2.50;;;1.13;;
66581;SDS011;53438;48.898;2.308;2023-07-20T12:58:02;1.75;;;1.00;;
66581;SDS011;53438;48.898;2.308;2023-07-20T13:00:28;0.90;;;0.70;;
66581;SDS011;53438;48.898;2.308;2023-07-20T13:02:53;2.47;;;0.67;;
66581;SDS011;53438;48.898;2.308;2023-07-20T13:05:19;2.43;;;1.17;;
66581;SDS011;53438;48.898;2.308;2023-07-20T13:07:44;6.03;;;2.47;;
66581;SDS011;53438;48.898;2.308;2023-07-20T13:10:10;4.28;;;2.00;;
66581;SDS011;53438;48.898;2.308;2023-07-20T13:12:37;2.45;;;1.17;;
66581;SDS011;53438;48.898;2.308;2023-07-20T13:15:03;6.15;;;1.30;;
66581;SDS011;53438;48.898;2.308;2023-07-20T13:17:36;1.83;;;1.10;;
66581;SDS011;53438;48.898;2.308;2023-07-20T13:20:04;2.70;;;1.00;;
66581;SDS011;53438;48.898;2.308;2023-07-20T13:22:31;2.13;;;1.10;;
66581;SDS011;53438;48.898;2.308;2023-07-20T13:24:57;2.17;;;1.25;;
66581;SDS011;53438;48.898;2.308;2023-07-20T13:27:22;2.50;;;0.90;;
66581;SDS011;53438;48.898;2.308;2023-07-20T13:29:47;1.43;;;0.90;;
66581;SDS011;53438;48.898;2.308;2023-07-20T13:32:14;2.83;;;1.10;;
66581;SDS011;53438;48.898;2.308;2023-07-20T13:34:40;1.52;;;0.88;;
66581;SDS011;53438;48.898;2.308;2023-07-20T13:37:05;1.87;;;1.00;;
66581;SDS011;53438;48.898;2.308;2023-07-20T13:39:31;2.13;;;0.90;;
66581;SDS011;53438;48.898;2.308;2023-07-20T13:41:56;4.00;;;1.07;;
66581;SDS011;53438;48.898;2.308;2023-07-20T13:44:22;1.80;;;0.90;;
66581;SDS011;53438;48.898;2.308;2023-07-20T13:46:47;7.07;;;0.95;;
66581;SDS011;53438;48.898;2.308;2023-07-20T13:49:13;1.83;;;1.00;;
66581;SDS011;53438;48.898;2.308;2023-07-20T13:51:39;5.17;;;3.20;;
66581;SDS011;53438;48.898;2.308;2023-07-20T13:54:05;2.60;;;1.30;;
66581;SDS011;53438;48.898;2.308;2023-07-20T13:56:31;2.30;;;1.20;;
66581;SDS011;53438;48.898;2.308;2023-07-20T13:58:56;3.37;;;0.87;;
66581;SDS011;53438;48.898;2.308;2023-07-20T14:01:21;2.20;;;0.93;;
66581;SDS011;53438;48.898;2.308;2023-07-20T14:03:49;2.65;;;1.20;;
66581;SDS011;53438;48.898;2.308;2023-07-20T14:06:15;5.28;;;1.90;;
66581;SDS011;53438;48.898;2.308;2023-07-20T14:08:42;3.17;;;1.40;;
66581;SDS011;53438;48.898;2.308;2023-07-20T14:11:07;4.88;;;1.52;;
66581;SDS011;53438;48.898;2.308;2023-07-20T14:13:33;12.13;;;2.05;;
66581;SDS011;53438;48.898;2.308;2023-07-20T14:15:58;19.93;;;2.17;;
66581;SDS011;53438;48.898;2.308;2023-07-20T14:18:24;3.80;;;1.20;;
66581;SDS011;53438;48.898;2.308;2023-07-20T14:20:49;4.00;;;1.90;;
66581;SDS011;53438;48.898;2.308;2023-07-20T14:23:14;3.27;;;1.00;;
66581;SDS011;53438;48.898;2.308;2023-07-20T14:25:40;2.20;;;1.00;;
66581;SDS011;53438;48.898;2.308;2023-07-20T14:28:05;5.30;;;1.33;;
66581;SDS011;53438;48.898;2.308;2023-07-20T14:30:32;7.25;;;1.10;;
66581;SDS011;53438;48.898;2.308;2023-07-20T14:32:57;3.63;;;1.40;;
66581;SDS011;53438;48.898;2.308;2023-07-20T14:35:23;2.13;;;0.77;;
66581;SDS011;53438;48.898;2.308;2023-07-20T14:37:48;3.10;;;0.90;;
66581;SDS011;53438;48.898;2.308;2023-07-20T14:40:15;7.68;;;1.52;;
66581;SDS011;53438;48.898;2.308;2023-07-20T14:42:40;5.27;;;1.10;;
66581;SDS011;53438;48.898;2.308;2023-07-20T14:45:06;3.03;;;1.10;;
66581;SDS011;53438;48.898;2.308;2023-07-20T14:47:31;4.50;;;1.20;;
66581;SDS011;53438;48.898;2.308;2023-07-20T14:50:00;2.08;;;1.05;;
66581;SDS011;53438;48.898;2.308;2023-07-20T14:52:27;3.60;;;1.30;;
66581;SDS011;53438;48.898;2.308;2023-07-20T14:54:54;3.90;;;1.30;;
66581;SDS011;53438;48.898;2.308;2023-07-20T14:57:19;4.95;;;1.33;;
66581;SDS011;53438;48.898;2.308;2023-07-20T14:59:48;4.80;;;1.55;;
66581;SDS011;53438;48.898;2.308;2023-07-20T15:02:14;3.50;;;1.63;;
66581;SDS011;53438;48.898;2.308;2023-07-20T15:04:45;2.60;;;1.50;;
66581;SDS011;53438;48.898;2.308;2023-07-20T15:07:15;4.97;;;1.30;;
66581;SDS011;53438;48.898;2.308;2023-07-20T15:09:41;1.95;;;1.20;;
66581;SDS011;53438;48.898;2.308;2023-07-20T15:12:07;2.53;;;1.40;;
66581;SDS011;53438;48.898;2.308;2023-07-20T15:14:32;1.98;;;1.35;;
66581;SDS011;53438;48.898;2.308;2023-07-20T15:16:58;3.53;;;1.37;;
66581;SDS011;53438;48.898;2.308;2023-07-20T15:19:23;2.33;;;0.90;;
66581;SDS011;53438;48.898;2.308;2023-07-20T15:21:49;2.35;;;1.33;;
66581;SDS011;53438;48.898;2.308;2023-07-20T15:24:14;6.00;;;1.47;;
66581;SDS011;53438;48.898;2.308;2023-07-20T15:26:39;3.70;;;1.87;;
66581;SDS011;53438;48.898;2.308;2023-07-20T15:29:06;4.15;;;1.80;;
66581;SDS011;53438;48.898;2.308;2023-07-20T15:31:31;3.50;;;2.00;;
66581;SDS011;53438;48.898;2.308;2023-07-20T15:33:57;2.90;;;1.33;;
66581;SDS011;53438;48.898;2.308;2023-07-20T15:36:22;2.47;;;1.20;;
66581;SDS011;53438;48.898;2.308;2023-07-20T15:38:48;2.73;;;1.00;;
66581;SDS011;53438;48.898;2.308;2023-07-20T15:41:14;1.70;;;1.20;;
66581;SDS011;53438;48.898;2.308;2023-07-20T15:43:39;4.17;;;2.60;;
66581;SDS011;53438;48.898;2.308;2023-07-20T15:48:46;6.70;;;2.80;;
66581;SDS011;53438;48.898;2.308;2023-07-20T15:51:11;6.03;;;2.17;;
66581;SDS011;53438;48.898;2.308;2023-07-20T15:53:37;2.67;;;1.83;;
66581;SDS011;53438;48.898;2.308;2023-07-20T15:56:02;3.53;;;1.60;;
66581;SDS011;53438;48.898;2.308;2023-07-20T15:58:28;5.60;;;2.10;;
66581;SDS011;53438;48.898;2.308;2023-07-20T16:00:54;2.67;;;1.57;;
66581;SDS011;53438;48.898;2.308;2023-07-20T16:03:20;3.10;;;1.40;;
66581;SDS011;53438;48.898;2.308;2023-07-20T16:05:45;2.87;;;1.70;;
66581;SDS011;53438;48.898;2.308;2023-07-20T16:08:11;3.80;;;1.70;;
66581;SDS011;53438;48.898;2.308;2023-07-20T16:10:36;4.20;;;1.50;;
66581;SDS011;53438;48.898;2.308;2023-07-20T16:13:01;3.13;;;1.42;;
66581;SDS011;53438;48.898;2.308;2023-07-20T16:15:27;2.92;;;1.48;;
66581;SDS011;53438;48.898;2.308;2023-07-20T16:17:52;3.17;;;1.60;;
66581;SDS011;53438;48.898;2.308;2023-07-20T16:20:19;1.90;;;1.25;;
66581;SDS011;53438;48.898;2.308;2023-07-20T16:22:44;5.57;;;1.50;;
66581;SDS011;53438;48.898;2.308;2023-07-20T16:25:09;3.80;;;1.60;;
66581;SDS011;53438;48.898;2.308;2023-07-20T16:27:35;2.40;;;1.30;;
66581;SDS011;53438;48.898;2.308;2023-07-20T16:30:00;3.05;;;1.40;;
66581;SDS011;53438;48.898;2.308;2023-07-20T16:32:26;2.55;;;1.50;;
66581;SDS011;53438;48.898;2.308;2023-07-20T16:34:52;2.13;;;1.27;;
66581;SDS011;53438;48.898;2.308;2023-07-20T16:37:17;2.30;;;1.20;;
66581;SDS011;53438;48.898;2.308;2023-07-20T16:39:42;1.97;;;1.00;;
66581;SDS011;53438;48.898;2.308;2023-07-20T16:42:08;3.80;;;1.73;;
66581;SDS011;53438;48.898;2.308;2023-07-20T16:44:34;3.13;;;1.63;;
66581;SDS011;53438;48.898;2.308;2023-07-20T16:46:59;4.43;;;2.77;;
66581;SDS011;53438;48.898;2.308;2023-07-20T16:49:25;2.20;;;1.30;;
66581;SDS011;53438;48.898;2.308;2023-07-20T16:51:51;2.85;;;1.17;;
66581;SDS011;53438;48.898;2.308;2023-07-20T16:54:17;2.63;;;1.33;;
66581;SDS011;53438;48.898;2.308;2023-07-20T16:56:42;4.60;;;1.33;;
66581;SDS011;53438;48.898;2.308;2023-07-20T16:59:08;4.03;;;1.03;;
66581;SDS011;53438;48.898;2.308;2023-07-20T17:01:33;3.55;;;1.60;;
66581;SDS011;53438;48.898;2.308;2023-07-20T17:03:59;2.57;;;1.10;;
66581;SDS011;53438;48.898;2.308;2023-07-20T17:06:24;4.47;;;1.17;;
66581;SDS011;53438;48.898;2.308;2023-07-20T17:08:49;7.63;;;1.20;;
66581;SDS011;53438;48.898;2.308;2023-07-20T17:11:15;3.45;;;1.20;;
66581;SDS011;53438;48.898;2.308;2023-07-20T17:13:40;2.30;;;1.40;;
66581;SDS011;53438;48.898;2.308;2023-07-20T17:16:06;3.23;;;1.50;;
66581;SDS011;53438;48.898;2.308;2023-07-20T17:18:31;1.63;;;1.10;;
66581;SDS011;53438;48.898;2.308;2023-07-20T17:20:57;4.50;;;1.30;;
66581;SDS011;53438;48.898;2.308;2023-07-20T17:23:22;2.17;;;0.83;;
66581;SDS011;53438;48.898;2.308;2023-07-20T17:25:48;1.60;;;0.73;;
66581;SDS011;53438;48.898;2.308;2023-07-20T17:28:14;1.70;;;0.90;;
66581;SDS011;53438;48.898;2.308;2023-07-20T17:30:40;3.85;;;1.15;;
66581;SDS011;53438;48.898;2.308;2023-07-20T17:33:05;2.90;;;1.00;;
66581;SDS011;53438;48.898;2.308;2023-07-20T17:35:31;3.40;;;1.07;;
66581;SDS011;53438;48.898;2.308;2023-07-20T17:37:56;4.00;;;1.10;;
66581;SDS011;53438;48.898;2.308;2023-07-20T17:40:22;5.30;;;2.88;;
66581;SDS011;53438;48.898;2.308;2023-07-20T17:42:47;3.33;;;1.20;;
66581;SDS011;53438;48.898;2.308;2023-07-20T17:45:14;1.60;;;1.10;;
66581;SDS011;53438;48.898;2.308;2023-07-20T17:47:39;1.70;;;1.10;;
66581;SDS011;53438;48.898;2.308;2023-07-20T17:50:05;3.40;;;1.60;;
66581;SDS011;53438;48.898;2.308;2023-07-20T17:52:31;2.03;;;1.40;;